Silencio — MLGX2 — position and weather

sailwx.info

Track history (hours):
 
Tides and Currents Weather Stations Pressure Air Temp Water Temp Dewpoint Dewpoint Depression Visibility Wind Speed Wind Dir Waves Ship Positions

Silencio

Last reported at 2017-Sep-21 22:23 UTC. Time now 2017-Sep-25 02:53 UTC.
Position N 43°16' E 006°38'.

Length 49 m; draft 3.8 m.

Type: Sailing vessel. MMSI: 232747000.

Date/timePositionNaut miles runAvg speedWind from/ knotsBaromVisibWave heightAir tempDewpointWater temp
2017-Sep-21 22:23N 43°16' E 006°38'0 0.0
2017-Sep-21 20:48N 43°16' E 006°38'0 0.0
2017-Sep-21 20:29N 43°16' E 006°38'0 0.0
2017-Sep-21 20:00N 43°16' E 006°38'17 3.7
2017-Sep-21 15:18N 43°26' E 006°57'3 9.7
2017-Sep-21 15:00N 43°28' E 007°00'5 9.9
2017-Sep-21 14:30N 43°31' E 007°06'5 9.8
2017-Sep-21 14:00N 43°34' E 007°11'5 9.6
2017-Sep-21 13:30N 43°37' E 007°16'8 9.4
2017-Sep-21 12:39N 43°42' E 007°24'2 9.6
2017-Sep-21 12:29N 43°44' E 007°26'1 1.2
2017-Sep-21 12:01N 43°44' E 007°26'0 0.0
2017-Sep-21 11:30N 43°44' E 007°26'0 0.0
2017-Sep-21 11:01N 43°44' E 007°26'0 0.0
2017-Sep-21 06:24N 43°44' E 007°26'0 0.0
2017-Sep-21 03:08N 43°44' E 007°26'0 0.0
2017-Sep-21 02:58N 43°44' E 007°26'0 0.0
2017-Sep-21 02:30N 43°44' E 007°26'0 0.0
2017-Sep-21 02:01N 43°44' E 007°26'0 0.0
2017-Sep-21 01:31N 43°44' E 007°26'0 0.0
2017-Sep-21 00:59N 43°44' E 007°26'0 0.0
2017-Sep-21 00:31N 43°44' E 007°26'  
2017-Sep-14 18:34N 43°43' E 007°26'110.7
2017-Sep-14 18:29N 43°43' E 007°25'510.6
2017-Sep-14 18:01N 43°39' E 007°20'510.0
2017-Sep-14 17:31N 43°35' E 007°16'5 9.8
2017-Sep-14 17:00N 43°31' E 007°12'5 9.5
2017-Sep-14 16:30N 43°27' E 007°09'5 9.3
2017-Sep-14 16:01N 43°23' E 007°05'5 9.3
2017-Sep-14 15:31N 43°19' E 007°02'151 9.9
2017-Sep-14 00:12N 41°28' E 004°43'310.2
2017-Sep-13 23:56N 41°26' E 004°41'8610.6
2017-Sep-13 15:47N 40°25' E 003°20'3 9.7
2017-Sep-13 15:28N 40°23' E 003°17'5 9.8
2017-Sep-13 15:00N 40°20' E 003°13'510.0
2017-Sep-13 14:30N 40°16' E 003°08'510.0
2017-Sep-13 14:00N 40°12' E 003°04'5 9.7
2017-Sep-13 13:30N 40°09' E 002°60'5 9.9
2017-Sep-13 13:00N 40°05' E 002°55'510.1
2017-Sep-13 12:30N 40°02' E 002°51'510.0
2017-Sep-13 12:00N 39°58' E 002°46'5 9.9
2017-Sep-13 11:30N 39°55' E 002°41'510.2
2017-Sep-13 11:01N 39°51' E 002°37'510.5
2017-Sep-13 10:30N 39°47' E 002°32'510.5
2017-Sep-13 09:59N 39°43' E 002°27'510.1
2017-Sep-13 09:30N 39°39' E 002°23'9 8.9
2017-Sep-13 08:30N 39°30' E 002°23'4 5.2
2017-Sep-13 07:42N 39°29' E 002°28'0 0.0
2017-Sep-13 07:30N 39°29' E 002°28'0 0.0
2017-Sep-13 07:00N 39°29' E 002°28'0 0.0
2017-Sep-13 06:30N 39°29' E 002°28'0 0.0
2017-Sep-13 06:00N 39°29' E 002°28'0 0.0
2017-Sep-13 05:30N 39°29' E 002°28'0 0.0
2017-Sep-13 05:00N 39°29' E 002°28'0 0.0
2017-Sep-13 04:12N 39°29' E 002°28'0 0.0
2017-Sep-13 03:57N 39°29' E 002°28'0 0.0
2017-Sep-13 03:24N 39°29' E 002°28'0 0.0
2017-Sep-13 03:00N 39°29' E 002°28'0 0.0
2017-Sep-13 02:30N 39°29' E 002°28'0 0.0
2017-Sep-13 01:54N 39°29' E 002°28'0 0.0
2017-Sep-13 01:18N 39°29' E 002°28'0 0.0
2017-Sep-13 00:48N 39°29' E 002°28'0 0.0
2017-Sep-13 00:30N 39°29' E 002°28'0 0.0
2017-Sep-12 23:24N 39°29' E 002°28'0 0.0
2017-Sep-12 22:30N 39°29' E 002°28'0 0.0
2017-Sep-12 21:48N 39°29' E 002°28'0 0.0
2017-Sep-12 21:30N 39°29' E 002°28'0 0.0
2017-Sep-12 21:00N 39°29' E 002°28'0 0.0
2017-Sep-12 20:30N 39°29' E 002°28'0 0.0
2017-Sep-12 20:00N 39°29' E 002°28'0 0.0
2017-Sep-12 16:12N 39°29' E 002°28'0 0.0
2017-Sep-12 16:00N 39°29' E 002°28'0 0.0
2017-Sep-12 15:12N 39°29' E 002°28'0 0.0
2017-Sep-12 14:42N 39°29' E 002°28'0 0.0
2017-Sep-12 08:36N 39°29' E 002°28'0 0.0
2017-Sep-12 07:00N 39°29' E 002°28'0 0.0
2017-Sep-12 06:24N 39°29' E 002°28'0 0.0
2017-Sep-12 05:18N 39°29' E 002°28'0 0.0
2017-Sep-12 03:24N 39°29' E 002°28'0 0.0
2017-Sep-12 02:42N 39°29' E 002°28'0 0.0
2017-Sep-12 02:18N 39°29' E 002°28'0 0.0
2017-Sep-12 02:00N 39°29' E 002°28'0 0.0
2017-Sep-11 23:00N 39°29' E 002°28'0 0.0
2017-Sep-11 22:30N 39°29' E 002°28'  
Track history (hours):
 
Tides and Currents Weather Stations Pressure Air Temp Water Temp Dewpoint Dewpoint Depression Visibility Wind Speed Wind Dir Waves Ship Positions

Silencio

Last reported at 2017-Sep-21 22:23 UTC. Time now 2017-Sep-25 02:53 UTC.
Position N 43°16' E 006°38'.

Length 49 m; draft 3.8 m.

Type: Sailing vessel. MMSI: 232747000.

Date/timePositionNaut miles runAvg speedWind from/ knotsBaromVisibWave heightAir tempDewpointWater temp
2017-Sep-21 22:23N 43°16' E 006°38'0 0.0
2017-Sep-21 20:48N 43°16' E 006°38'0 0.0
2017-Sep-21 20:29N 43°16' E 006°38'0 0.0
2017-Sep-21 20:00N 43°16' E 006°38'17 3.7
2017-Sep-21 15:18N 43°26' E 006°57'3 9.7
2017-Sep-21 15:00N 43°28' E 007°00'5 9.9
2017-Sep-21 14:30N 43°31' E 007°06'5 9.8
2017-Sep-21 14:00N 43°34' E 007°11'5 9.6
2017-Sep-21 13:30N 43°37' E 007°16'8 9.4
2017-Sep-21 12:39N 43°42' E 007°24'2 9.6
2017-Sep-21 12:29N 43°44' E 007°26'1 1.2
2017-Sep-21 12:01N 43°44' E 007°26'0 0.0
2017-Sep-21 11:30N 43°44' E 007°26'0 0.0
2017-Sep-21 11:01N 43°44' E 007°26'0 0.0
2017-Sep-21 06:24N 43°44' E 007°26'0 0.0
2017-Sep-21 03:08N 43°44' E 007°26'0 0.0
2017-Sep-21 02:58N 43°44' E 007°26'0 0.0
2017-Sep-21 02:30N 43°44' E 007°26'0 0.0
2017-Sep-21 02:01N 43°44' E 007°26'0 0.0
2017-Sep-21 01:31N 43°44' E 007°26'0 0.0
2017-Sep-21 00:59N 43°44' E 007°26'0 0.0
2017-Sep-21 00:31N 43°44' E 007°26'  
2017-Sep-14 18:34N 43°43' E 007°26'110.7
2017-Sep-14 18:29N 43°43' E 007°25'510.6
2017-Sep-14 18:01N 43°39' E 007°20'510.0
2017-Sep-14 17:31N 43°35' E 007°16'5 9.8
2017-Sep-14 17:00N 43°31' E 007°12'5 9.5
2017-Sep-14 16:30N 43°27' E 007°09'5 9.3
2017-Sep-14 16:01N 43°23' E 007°05'5 9.3
2017-Sep-14 15:31N 43°19' E 007°02'151 9.9
2017-Sep-14 00:12N 41°28' E 004°43'310.2
2017-Sep-13 23:56N 41°26' E 004°41'8610.6
2017-Sep-13 15:47N 40°25' E 003°20'3 9.7
2017-Sep-13 15:28N 40°23' E 003°17'5 9.8
2017-Sep-13 15:00N 40°20' E 003°13'510.0
2017-Sep-13 14:30N 40°16' E 003°08'510.0
2017-Sep-13 14:00N 40°12' E 003°04'5 9.7
2017-Sep-13 13:30N 40°09' E 002°60'5 9.9
2017-Sep-13 13:00N 40°05' E 002°55'510.1
2017-Sep-13 12:30N 40°02' E 002°51'510.0
2017-Sep-13 12:00N 39°58' E 002°46'5 9.9
2017-Sep-13 11:30N 39°55' E 002°41'510.2
2017-Sep-13 11:01N 39°51' E 002°37'510.5
2017-Sep-13 10:30N 39°47' E 002°32'510.5
2017-Sep-13 09:59N 39°43' E 002°27'510.1
2017-Sep-13 09:30N 39°39' E 002°23'9 8.9
2017-Sep-13 08:30N 39°30' E 002°23'4 5.2
2017-Sep-13 07:42N 39°29' E 002°28'0 0.0
2017-Sep-13 07:30N 39°29' E 002°28'0 0.0
2017-Sep-13 07:00N 39°29' E 002°28'0 0.0
2017-Sep-13 06:30N 39°29' E 002°28'0 0.0
2017-Sep-13 06:00N 39°29' E 002°28'0 0.0
2017-Sep-13 05:30N 39°29' E 002°28'0 0.0
2017-Sep-13 05:00N 39°29' E 002°28'0 0.0
2017-Sep-13 04:12N 39°29' E 002°28'0 0.0
2017-Sep-13 03:57N 39°29' E 002°28'0 0.0
2017-Sep-13 03:24N 39°29' E 002°28'0 0.0
2017-Sep-13 03:00N 39°29' E 002°28'0 0.0
2017-Sep-13 02:30N 39°29' E 002°28'0 0.0
2017-Sep-13 01:54N 39°29' E 002°28'0 0.0
2017-Sep-13 01:18N 39°29' E 002°28'0 0.0
2017-Sep-13 00:48N 39°29' E 002°28'0 0.0
2017-Sep-13 00:30N 39°29' E 002°28'0 0.0
2017-Sep-12 23:24N 39°29' E 002°28'0 0.0
2017-Sep-12 22:30N 39°29' E 002°28'0 0.0
2017-Sep-12 21:48N 39°29' E 002°28'0 0.0
2017-Sep-12 21:30N 39°29' E 002°28'0 0.0
2017-Sep-12 21:00N 39°29' E 002°28'0 0.0
2017-Sep-12 20:30N 39°29' E 002°28'0 0.0
2017-Sep-12 20:00N 39°29' E 002°28'0 0.0
2017-Sep-12 16:12N 39°29' E 002°28'0 0.0
2017-Sep-12 16:00N 39°29' E 002°28'0 0.0
2017-Sep-12 15:12N 39°29' E 002°28'0 0.0
2017-Sep-12 14:42N 39°29' E 002°28'0 0.0
2017-Sep-12 08:36N 39°29' E 002°28'0 0.0
2017-Sep-12 07:00N 39°29' E 002°28'0 0.0
2017-Sep-12 06:24N 39°29' E 002°28'0 0.0
2017-Sep-12 05:18N 39°29' E 002°28'0 0.0
2017-Sep-12 03:24N 39°29' E 002°28'0 0.0
2017-Sep-12 02:42N 39°29' E 002°28'0 0.0
2017-Sep-12 02:18N 39°29' E 002°28'0 0.0
2017-Sep-12 02:00N 39°29' E 002°28'0 0.0
2017-Sep-11 23:00N 39°29' E 002°28'0 0.0
2017-Sep-11 22:30N 39°29' E 002°28'  

Dump ship's entire track history